Pagina principală
METAR-TAF:

METAR-TAF

Aeroporturi :

Ephrata Municipal Airport

Ephrata, Washington, Statele Unite ale Americii

Latitudine: 47-18-27N, longitudine: 119-30-57W, elevație: 389 m

Observații meteo curente

Raportul a fost făcut în urmă cu 27 de minute, la 21:53 UTC
Vânt 9 kt de la Sud-vest cu rafale de până la 15 kt
Temperatură 19°C
Umiditate 26%
Presiune 1012 hPa
Vizibilitate: 16.1 km
Nori împrăștiați la o înălțime de 8000 picior

METAR: KEPH 162153Z AUTO 22009G15KT 10SM SCT080 19/M01 A2989 RMK AO2 SLP123 T01891011

Ora: 15:20 (22:20 UTC)


TAF: lipsă

Observații și prognoze meteo pentru peste 4.000 de aeroporturi (rapoarte METAR și TAF).

Stațiile disponibile sunt reprezentate pe hartă prin puncte galbene și roșii.

Țineți indicatorul mouse-ului pe punctul dorit pentru a vedea denumirea stației.

Apoi, faceți clic pentru a vedea observațiile și prognozele meteorologice.

Pentru a schimba harta: Pentru mărire, faceți clic pe butoanele verzi cu cruce neagră; pentru micșorare, pe butonul verde cu o liniuță; pentru hărți învecinate, pe săgețile verzi.


METAR-TAF: